sensor_id;sensor_type;location;lat;lon;timestamp;pressure;altitude;pressure_sealevel;temperature;humidity
19259;BME280;9763;48.780;9.212;2024-02-15T00:01:15;98859.06;;;15.52;75.59
19259;BME280;9763;48.780;9.212;2024-02-15T00:04:38;98859.19;;;15.50;75.53
19259;BME280;9763;48.780;9.212;2024-02-15T00:08:02;98862.78;;;15.49;76.05
19259;BME280;9763;48.780;9.212;2024-02-15T00:11:26;98856.78;;;15.47;76.20
19259;BME280;9763;48.780;9.212;2024-02-15T00:14:51;98855.84;;;15.48;75.96
19259;BME280;9763;48.780;9.212;2024-02-15T00:18:16;98863.84;;;15.47;76.48
19259;BME280;9763;48.780;9.212;2024-02-15T00:21:43;98866.38;;;15.48;76.23
19259;BME280;9763;48.780;9.212;2024-02-15T00:25:07;98856.69;;;15.49;76.49
19259;BME280;9763;48.780;9.212;2024-02-15T00:28:31;98860.16;;;15.49;76.60
19259;BME280;9763;48.780;9.212;2024-02-15T00:31:56;98856.56;;;15.50;76.46
19259;BME280;9763;48.780;9.212;2024-02-15T00:35:22;98848.91;;;15.47;76.35
19259;BME280;9763;48.780;9.212;2024-02-15T00:38:46;98860.88;;;15.52;76.98
19259;BME280;9763;48.780;9.212;2024-02-15T00:42:09;98849.50;;;15.51;76.78
19259;BME280;9763;48.780;9.212;2024-02-15T00:45:33;98850.47;;;15.50;77.10
19259;BME280;9763;48.780;9.212;2024-02-15T00:48:56;98845.31;;;15.48;76.87
19259;BME280;9763;48.780;9.212;2024-02-15T00:52:22;98848.66;;;15.50;77.05
19259;BME280;9763;48.780;9.212;2024-02-15T00:55:46;98844.38;;;15.49;76.70
19259;BME280;9763;48.780;9.212;2024-02-15T00:59:09;98841.00;;;15.47;76.66
19259;BME280;9763;48.780;9.212;2024-02-15T01:02:33;98840.16;;;15.47;76.59
19259;BME280;9763;48.780;9.212;2024-02-15T01:05:57;98836.00;;;15.44;76.43
19259;BME280;9763;48.780;9.212;2024-02-15T01:09:23;98837.06;;;15.42;76.92
19259;BME280;9763;48.780;9.212;2024-02-15T01:12:46;98821.53;;;15.39;76.62
19259;BME280;9763;48.780;9.212;2024-02-15T01:16:10;98828.56;;;15.38;76.73
19259;BME280;9763;48.780;9.212;2024-02-15T01:19:34;98830.47;;;15.36;76.66
19259;BME280;9763;48.780;9.212;2024-02-15T01:22:58;98827.97;;;15.35;77.02
19259;BME280;9763;48.780;9.212;2024-02-15T01:26:23;98824.50;;;15.34;76.76
19259;BME280;9763;48.780;9.212;2024-02-15T01:29:46;98831.56;;;15.34;77.22
19259;BME280;9763;48.780;9.212;2024-02-15T01:33:10;98820.47;;;15.30;77.05
19259;BME280;9763;48.780;9.212;2024-02-15T01:36:34;98825.72;;;15.30;77.41
19259;BME280;9763;48.780;9.212;2024-02-15T01:39:57;98824.03;;;15.29;77.27
19259;BME280;9763;48.780;9.212;2024-02-15T01:43:23;98823.53;;;15.24;77.46
19259;BME280;9763;48.780;9.212;2024-02-15T01:46:48;98826.56;;;15.20;77.35
19259;BME280;9763;48.780;9.212;2024-02-15T01:50:14;98829.53;;;15.15;77.28
19259;BME280;9763;48.780;9.212;2024-02-15T01:53:42;98831.53;;;15.11;76.93
19259;BME280;9763;48.780;9.212;2024-02-15T01:57:07;98832.13;;;15.04;77.22
19259;BME280;9763;48.780;9.212;2024-02-15T02:00:32;98819.94;;;14.92;76.72
19259;BME280;9763;48.780;9.212;2024-02-15T02:03:56;98828.53;;;14.83;77.29
19259;BME280;9763;48.780;9.212;2024-02-15T02:07:20;98835.44;;;14.72;77.12
19259;BME280;9763;48.780;9.212;2024-02-15T02:10:44;98825.00;;;14.60;76.57
19259;BME280;9763;48.780;9.212;2024-02-15T02:14:08;98827.72;;;14.58;76.74
19259;BME280;9763;48.780;9.212;2024-02-15T02:17:34;98826.50;;;14.51;76.58
19259;BME280;9763;48.780;9.212;2024-02-15T02:20:58;98816.25;;;14.48;76.32
19259;BME280;9763;48.780;9.212;2024-02-15T02:24:24;98826.75;;;14.48;76.56
19259;BME280;9763;48.780;9.212;2024-02-15T02:27:50;98825.41;;;14.43;76.02
19259;BME280;9763;48.780;9.212;2024-02-15T02:31:14;98827.72;;;14.34;76.33
19259;BME280;9763;48.780;9.212;2024-02-15T02:34:38;98821.25;;;14.27;76.26
19259;BME280;9763;48.780;9.212;2024-02-15T02:38:03;98821.28;;;14.15;76.05
19259;BME280;9763;48.780;9.212;2024-02-15T02:41:27;98819.97;;;14.09;76.77
19259;BME280;9763;48.780;9.212;2024-02-15T02:44:53;98828.28;;;14.03;76.90
19259;BME280;9763;48.780;9.212;2024-02-15T02:48:16;98822.75;;;13.95;76.59
19259;BME280;9763;48.780;9.212;2024-02-15T02:51:41;98821.06;;;13.94;76.52
19259;BME280;9763;48.780;9.212;2024-02-15T02:55:05;98826.53;;;13.91;77.24
19259;BME280;9763;48.780;9.212;2024-02-15T02:58:30;98821.41;;;13.89;76.48
19259;BME280;9763;48.780;9.212;2024-02-15T03:01:55;98826.78;;;13.88;76.86
19259;BME280;9763;48.780;9.212;2024-02-15T03:05:19;98827.81;;;13.85;76.31
19259;BME280;9763;48.780;9.212;2024-02-15T03:08:44;98825.41;;;13.82;76.70
19259;BME280;9763;48.780;9.212;2024-02-15T03:12:07;98821.13;;;13.81;76.23
19259;BME280;9763;48.780;9.212;2024-02-15T03:15:31;98822.16;;;13.79;76.50
19259;BME280;9763;48.780;9.212;2024-02-15T03:18:57;98818.31;;;13.72;76.14
19259;BME280;9763;48.780;9.212;2024-02-15T03:22:21;98817.69;;;13.68;76.28
19259;BME280;9763;48.780;9.212;2024-02-15T03:25:47;98828.53;;;13.63;76.10
19259;BME280;9763;48.780;9.212;2024-02-15T03:29:12;98818.34;;;13.59;76.32
19259;BME280;9763;48.780;9.212;2024-02-15T03:32:35;98818.16;;;13.49;76.34
19259;BME280;9763;48.780;9.212;2024-02-15T03:36:01;98824.16;;;13.39;76.33
19259;BME280;9763;48.780;9.212;2024-02-15T03:39:25;98827.41;;;13.29;75.95
19259;BME280;9763;48.780;9.212;2024-02-15T03:42:50;98822.69;;;13.22;75.90
19259;BME280;9763;48.780;9.212;2024-02-15T03:46:13;98826.69;;;13.15;75.85
19259;BME280;9763;48.780;9.212;2024-02-15T03:49:37;98829.88;;;13.06;76.30
19259;BME280;9763;48.780;9.212;2024-02-15T03:53:03;98827.91;;;12.96;76.31
19259;BME280;9763;48.780;9.212;2024-02-15T03:56:30;98834.72;;;12.86;76.89
19259;BME280;9763;48.780;9.212;2024-02-15T03:59:55;98830.84;;;12.79;76.52
19259;BME280;9763;48.780;9.212;2024-02-15T04:03:19;98832.63;;;12.79;77.28
19259;BME280;9763;48.780;9.212;2024-02-15T04:06:43;98830.41;;;12.85;76.54
19259;BME280;9763;48.780;9.212;2024-02-15T04:10:09;98838.59;;;12.93;76.93
19259;BME280;9763;48.780;9.212;2024-02-15T04:13:33;98840.47;;;13.04;76.80
19259;BME280;9763;48.780;9.212;2024-02-15T04:16:57;98844.09;;;13.16;76.74
19259;BME280;9763;48.780;9.212;2024-02-15T04:20:21;98830.47;;;13.23;76.60
19259;BME280;9763;48.780;9.212;2024-02-15T04:23:45;98838.63;;;13.31;76.13
19259;BME280;9763;48.780;9.212;2024-02-15T04:27:10;98835.50;;;13.39;76.18
19259;BME280;9763;48.780;9.212;2024-02-15T04:30:35;98830.63;;;13.46;76.07
19259;BME280;9763;48.780;9.212;2024-02-15T04:34:01;98831.06;;;13.52;75.94
19259;BME280;9763;48.780;9.212;2024-02-15T04:37:26;98824.75;;;13.55;76.03
19259;BME280;9763;48.780;9.212;2024-02-15T04:40:51;98824.13;;;13.64;75.92
19259;BME280;9763;48.780;9.212;2024-02-15T04:44:17;98831.75;;;13.67;75.92
19259;BME280;9763;48.780;9.212;2024-02-15T04:47:42;98836.69;;;13.72;76.18
19259;BME280;9763;48.780;9.212;2024-02-15T04:51:09;98826.81;;;13.75;76.22
19259;BME280;9763;48.780;9.212;2024-02-15T04:54:34;98827.41;;;13.79;76.25
19259;BME280;9763;48.780;9.212;2024-02-15T04:57:57;98821.84;;;13.83;75.82
19259;BME280;9763;48.780;9.212;2024-02-15T05:01:23;98815.44;;;13.87;76.45
19259;BME280;9763;48.780;9.212;2024-02-15T05:04:47;98807.56;;;13.87;75.88
19259;BME280;9763;48.780;9.212;2024-02-15T05:08:11;98814.03;;;13.94;75.52
19259;BME280;9763;48.780;9.212;2024-02-15T05:11:37;98810.78;;;13.91;75.50
19259;BME280;9763;48.780;9.212;2024-02-15T05:15:05;98818.66;;;13.91;76.13
19259;BME280;9763;48.780;9.212;2024-02-15T05:18:34;98811.72;;;13.90;75.76
19259;BME280;9763;48.780;9.212;2024-02-15T05:21:58;98816.88;;;13.91;76.27
19259;BME280;9763;48.780;9.212;2024-02-15T05:25:23;98804.09;;;13.87;76.14
19259;BME280;9763;48.780;9.212;2024-02-15T05:28:48;98811.13;;;13.86;76.21
19259;BME280;9763;48.780;9.212;2024-02-15T05:32:12;98805.78;;;13.88;76.37
19259;BME280;9763;48.780;9.212;2024-02-15T05:35:41;98799.56;;;13.89;76.30
19259;BME280;9763;48.780;9.212;2024-02-15T05:39:09;98802.69;;;13.94;76.43
19259;BME280;9763;48.780;9.212;2024-02-15T05:42:34;98793.66;;;13.98;76.42
19259;BME280;9763;48.780;9.212;2024-02-15T05:45:58;98790.00;;;14.00;76.38
19259;BME280;9763;48.780;9.212;2024-02-15T05:49:22;98792.47;;;14.02;76.35
19259;BME280;9763;48.780;9.212;2024-02-15T05:52:48;98792.63;;;14.00;76.57
19259;BME280;9763;48.780;9.212;2024-02-15T05:56:11;98805.75;;;14.00;76.69
19259;BME280;9763;48.780;9.212;2024-02-15T05:59:35;98802.28;;;14.00;76.71
19259;BME280;9763;48.780;9.212;2024-02-15T06:03:01;98802.88;;;14.03;76.90
19259;BME280;9763;48.780;9.212;2024-02-15T06:06:26;98792.47;;;14.02;76.65
19259;BME280;9763;48.780;9.212;2024-02-15T06:09:52;98807.56;;;14.11;76.82
19259;BME280;9763;48.780;9.212;2024-02-15T06:13:16;98775.72;;;13.92;76.37
19259;BME280;9763;48.780;9.212;2024-02-15T06:16:43;98809.00;;;14.15;76.44
19259;BME280;9763;48.780;9.212;2024-02-15T06:20:08;98807.22;;;14.16;76.57
19259;BME280;9763;48.780;9.212;2024-02-15T06:23:34;98803.28;;;14.10;76.03
19259;BME280;9763;48.780;9.212;2024-02-15T06:26:59;98790.78;;;14.01;76.27
19259;BME280;9763;48.780;9.212;2024-02-15T06:30:24;98796.41;;;13.96;76.20
19259;BME280;9763;48.780;9.212;2024-02-15T06:34:05;98798.03;;;13.86;76.35
19259;BME280;9763;48.780;9.212;2024-02-15T06:37:47;98801.19;;;13.79;76.23
19259;BME280;9763;48.780;9.212;2024-02-15T06:41:28;98803.41;;;13.72;76.86
19259;BME280;9763;48.780;9.212;2024-02-15T06:44:53;98806.34;;;13.67;76.99
19259;BME280;9763;48.780;9.212;2024-02-15T06:48:17;98802.06;;;13.66;77.46
19259;BME280;9763;48.780;9.212;2024-02-15T06:51:40;98798.59;;;13.66;77.40
19259;BME280;9763;48.780;9.212;2024-02-15T06:55:07;98803.00;;;13.65;76.88
19259;BME280;9763;48.780;9.212;2024-02-15T06:58:35;98796.06;;;13.64;76.71
19259;BME280;9763;48.780;9.212;2024-02-15T07:02:00;98798.94;;;13.61;76.46
19259;BME280;9763;48.780;9.212;2024-02-15T07:05:27;98795.56;;;13.59;76.83
19259;BME280;9763;48.780;9.212;2024-02-15T07:08:51;98801.78;;;13.58;76.68
19259;BME280;9763;48.780;9.212;2024-02-15T07:12:17;98813.94;;;13.59;76.26
19259;BME280;9763;48.780;9.212;2024-02-15T07:15:45;98803.44;;;13.59;76.54
19259;BME280;9763;48.780;9.212;2024-02-15T07:19:10;98813.84;;;13.61;76.60
19259;BME280;9763;48.780;9.212;2024-02-15T07:22:33;98811.94;;;13.63;75.84
19259;BME280;9763;48.780;9.212;2024-02-15T07:25:57;98807.66;;;13.62;76.47
19259;BME280;9763;48.780;9.212;2024-02-15T07:29:20;98802.16;;;13.65;76.03
19259;BME280;9763;48.780;9.212;2024-02-15T07:32:45;98799.44;;;13.66;75.84
19259;BME280;9763;48.780;9.212;2024-02-15T07:36:10;98783.41;;;13.58;76.04
19259;BME280;9763;48.780;9.212;2024-02-15T07:39:35;98784.78;;;13.64;76.09
19259;BME280;9763;48.780;9.212;2024-02-15T07:42:59;98789.94;;;13.77;76.09
19259;BME280;9763;48.780;9.212;2024-02-15T07:46:25;98787.53;;;13.86;76.35
19259;BME280;9763;48.780;9.212;2024-02-15T07:49:49;98775.41;;;13.96;76.35
19259;BME280;9763;48.780;9.212;2024-02-15T07:53:14;98775.25;;;14.11;76.42
19259;BME280;9763;48.780;9.212;2024-02-15T07:56:38;98776.84;;;14.24;76.45
19259;BME280;9763;48.780;9.212;2024-02-15T08:00:01;98769.00;;;14.35;75.84
19259;BME280;9763;48.780;9.212;2024-02-15T08:03:32;98768.25;;;14.46;76.53
19259;BME280;9763;48.780;9.212;2024-02-15T08:06:57;98768.03;;;14.60;75.76
19259;BME280;9763;48.780;9.212;2024-02-15T08:10:22;98759.22;;;14.72;76.23
19259;BME280;9763;48.780;9.212;2024-02-15T08:13:46;98753.38;;;14.80;75.98
19259;BME280;9763;48.780;9.212;2024-02-15T08:17:12;98745.50;;;14.91;75.82
19259;BME280;9763;48.780;9.212;2024-02-15T08:20:36;98746.22;;;15.04;76.34
19259;BME280;9763;48.780;9.212;2024-02-15T08:24:00;98736.31;;;15.19;77.06
19259;BME280;9763;48.780;9.212;2024-02-15T08:27:29;98736.63;;;15.37;76.71
19259;BME280;9763;48.780;9.212;2024-02-15T08:30:55;98743.41;;;15.73;77.08
19259;BME280;9763;48.780;9.212;2024-02-15T08:34:19;98741.50;;;16.39;78.72
19259;BME280;9763;48.780;9.212;2024-02-15T08:37:43;98730.03;;;16.91;78.05
19259;BME280;9763;48.780;9.212;2024-02-15T08:41:11;98711.69;;;17.20;76.72
19259;BME280;9763;48.780;9.212;2024-02-15T08:44:36;98711.22;;;17.45;76.97
19259;BME280;9763;48.780;9.212;2024-02-15T08:48:00;98721.81;;;17.64;76.44
19259;BME280;9763;48.780;9.212;2024-02-15T08:51:27;98707.81;;;17.74;75.97
19259;BME280;9763;48.780;9.212;2024-02-15T08:54:50;98709.19;;;17.68;74.55
19259;BME280;9763;48.780;9.212;2024-02-15T08:58:15;98699.69;;;17.56;74.40
19259;BME280;9763;48.780;9.212;2024-02-15T09:01:40;98702.72;;;17.51;74.71
19259;BME280;9763;48.780;9.212;2024-02-15T09:05:06;98694.41;;;17.46;74.22
19259;BME280;9763;48.780;9.212;2024-02-15T09:08:30;98699.13;;;17.43;74.47
19259;BME280;9763;48.780;9.212;2024-02-15T09:11:53;98695.09;;;17.39;74.69
19259;BME280;9763;48.780;9.212;2024-02-15T09:15:17;98703.28;;;17.36;75.22
19259;BME280;9763;48.780;9.212;2024-02-15T09:18:42;98702.44;;;17.35;74.84
19259;BME280;9763;48.780;9.212;2024-02-15T09:22:08;98701.47;;;17.36;74.83
19259;BME280;9763;48.780;9.212;2024-02-15T09:25:32;98688.53;;;17.33;75.14
19259;BME280;9763;48.780;9.212;2024-02-15T09:28:55;98699.81;;;17.35;74.87
19259;BME280;9763;48.780;9.212;2024-02-15T09:32:18;98697.88;;;17.37;74.84
19259;BME280;9763;48.780;9.212;2024-02-15T09:35:45;98695.78;;;17.41;75.42
19259;BME280;9763;48.780;9.212;2024-02-15T09:39:09;98691.19;;;17.33;75.33
19259;BME280;9763;48.780;9.212;2024-02-15T09:42:36;98694.75;;;17.22;75.11
19259;BME280;9763;48.780;9.212;2024-02-15T09:46:01;98684.72;;;17.16;74.83
19259;BME280;9763;48.780;9.212;2024-02-15T09:49:27;98685.84;;;17.14;75.14
19259;BME280;9763;48.780;9.212;2024-02-15T09:52:53;98674.47;;;17.13;75.12
19259;BME280;9763;48.780;9.212;2024-02-15T09:56:18;98673.50;;;17.14;74.99
19259;BME280;9763;48.780;9.212;2024-02-15T09:59:43;98681.56;;;17.22;74.85
19259;BME280;9763;48.780;9.212;2024-02-15T10:03:08;98690.72;;;17.28;74.89
19259;BME280;9763;48.780;9.212;2024-02-15T10:06:34;98676.06;;;17.35;75.34
19259;BME280;9763;48.780;9.212;2024-02-15T10:10:15;98669.25;;;17.42;74.76
19259;BME280;9763;48.780;9.212;2024-02-15T10:13:39;98673.88;;;17.50;74.65
19259;BME280;9763;48.780;9.212;2024-02-15T10:17:07;98674.59;;;18.10;74.19
19259;BME280;9763;48.780;9.212;2024-02-15T10:20:33;98657.91;;;19.57;74.54
19259;BME280;9763;48.780;9.212;2024-02-15T10:24:07;98652.88;;;21.53;74.10
19259;BME280;9763;48.780;9.212;2024-02-15T10:27:32;98644.06;;;23.21;71.27
19259;BME280;9763;48.780;9.212;2024-02-15T10:31:07;98636.91;;;24.73;68.91
19259;BME280;9763;48.780;9.212;2024-02-15T10:34:34;98630.88;;;26.09;66.59
19259;BME280;9763;48.780;9.212;2024-02-15T10:38:07;98628.56;;;27.24;64.09
19259;BME280;9763;48.780;9.212;2024-02-15T10:41:31;98624.41;;;28.15;62.22
19259;BME280;9763;48.780;9.212;2024-02-15T10:44:58;98608.69;;;28.85;60.09
19259;BME280;9763;48.780;9.212;2024-02-15T10:48:24;98606.19;;;29.41;58.70
19259;BME280;9763;48.780;9.212;2024-02-15T10:51:56;98602.97;;;29.89;57.66
19259;BME280;9763;48.780;9.212;2024-02-15T10:55:35;98594.25;;;30.43;57.01
19259;BME280;9763;48.780;9.212;2024-02-15T10:59:11;98588.88;;;30.79;55.70
19259;BME280;9763;48.780;9.212;2024-02-15T11:02:49;98589.72;;;30.98;55.17
19259;BME280;9763;48.780;9.212;2024-02-15T11:06:18;98586.34;;;31.21;54.66
19259;BME280;9763;48.780;9.212;2024-02-15T11:09:45;98582.50;;;31.29;54.15
19259;BME280;9763;48.780;9.212;2024-02-15T11:13:09;98581.97;;;31.38;53.96
19259;BME280;9763;48.780;9.212;2024-02-15T11:16:43;98571.06;;;31.45;53.23
19259;BME280;9763;48.780;9.212;2024-02-15T11:20:10;98561.44;;;31.37;53.27
19259;BME280;9763;48.780;9.212;2024-02-15T11:23:35;98562.13;;;31.33;53.69
19259;BME280;9763;48.780;9.212;2024-02-15T11:26:59;98541.53;;;31.20;53.72
19259;BME280;9763;48.780;9.212;2024-02-15T11:30:32;98547.25;;;30.94;52.88
19259;BME280;9763;48.780;9.212;2024-02-15T11:33:56;98547.47;;;30.92;54.14
19259;BME280;9763;48.780;9.212;2024-02-15T11:37:58;98541.56;;;30.84;54.02
19259;BME280;9763;48.780;9.212;2024-02-15T11:41:26;98540.59;;;30.60;53.91
19259;BME280;9763;48.780;9.212;2024-02-15T11:45:03;98542.03;;;30.19;53.47
19259;BME280;9763;48.780;9.212;2024-02-15T11:48:28;98537.34;;;29.83;54.06
19259;BME280;9763;48.780;9.212;2024-02-15T11:51:52;98532.97;;;29.32;53.98
19259;BME280;9763;48.780;9.212;2024-02-15T11:55:20;98527.47;;;28.70;54.55
19259;BME280;9763;48.780;9.212;2024-02-15T11:59:02;98521.81;;;28.00;55.33
19259;BME280;9763;48.780;9.212;2024-02-15T12:02:31;98523.38;;;27.15;56.83
19259;BME280;9763;48.780;9.212;2024-02-15T12:06:17;98519.13;;;26.39;58.71
19259;BME280;9763;48.780;9.212;2024-02-15T12:09:59;98521.00;;;25.82;60.27
19259;BME280;9763;48.780;9.212;2024-02-15T12:13:43;98521.56;;;25.35;60.79
19259;BME280;9763;48.780;9.212;2024-02-15T12:17:32;98516.34;;;24.91;61.34
19259;BME280;9763;48.780;9.212;2024-02-15T12:21:19;98513.38;;;24.50;62.00
19259;BME280;9763;48.780;9.212;2024-02-15T12:24:52;98504.88;;;24.17;63.18
19259;BME280;9763;48.780;9.212;2024-02-15T12:28:16;98497.03;;;23.86;64.15
19259;BME280;9763;48.780;9.212;2024-02-15T12:31:43;98502.78;;;23.60;64.30
19259;BME280;9763;48.780;9.212;2024-02-15T12:35:12;98486.38;;;23.26;65.02
19259;BME280;9763;48.780;9.212;2024-02-15T12:38:39;98491.78;;;23.18;65.71
19259;BME280;9763;48.780;9.212;2024-02-15T12:42:06;98494.06;;;22.98;65.89
19259;BME280;9763;48.780;9.212;2024-02-15T12:45:35;98484.69;;;22.79;66.10
19259;BME280;9763;48.780;9.212;2024-02-15T12:49:28;98476.09;;;22.61;65.71
19259;BME280;9763;48.780;9.212;2024-02-15T12:52:53;98468.84;;;22.47;66.70
19259;BME280;9763;48.780;9.212;2024-02-15T12:56:20;98465.25;;;22.40;67.30
19259;BME280;9763;48.780;9.212;2024-02-15T12:59:46;98457.91;;;22.42;67.34
19259;BME280;9763;48.780;9.212;2024-02-15T13:03:11;98454.09;;;22.44;67.12
19259;BME280;9763;48.780;9.212;2024-02-15T13:06:39;98445.94;;;22.46;67.50
19259;BME280;9763;48.780;9.212;2024-02-15T13:10:03;98443.63;;;22.43;67.22
19259;BME280;9763;48.780;9.212;2024-02-15T13:13:29;98435.97;;;22.40;67.10
19259;BME280;9763;48.780;9.212;2024-02-15T13:16:53;98429.84;;;22.39;67.05
19259;BME280;9763;48.780;9.212;2024-02-15T13:20:17;98430.84;;;22.38;67.73
19259;BME280;9763;48.780;9.212;2024-02-15T13:23:44;98422.56;;;22.33;67.57
19259;BME280;9763;48.780;9.212;2024-02-15T13:27:08;98424.06;;;22.27;67.97
19259;BME280;9763;48.780;9.212;2024-02-15T13:30:34;98420.63;;;22.19;67.46
19259;BME280;9763;48.780;9.212;2024-02-15T13:33:58;98421.63;;;22.10;67.51
19259;BME280;9763;48.780;9.212;2024-02-15T13:37:22;98412.88;;;21.93;68.43
19259;BME280;9763;48.780;9.212;2024-02-15T13:40:48;98408.59;;;21.76;68.52
19259;BME280;9763;48.780;9.212;2024-02-15T13:44:13;98407.78;;;21.83;68.67
19259;BME280;9763;48.780;9.212;2024-02-15T13:47:38;98404.94;;;21.85;68.37
19259;BME280;9763;48.780;9.212;2024-02-15T13:51:02;98408.91;;;21.89;68.54
19259;BME280;9763;48.780;9.212;2024-02-15T13:54:26;98407.25;;;21.88;68.06
19259;BME280;9763;48.780;9.212;2024-02-15T13:57:52;98403.63;;;21.81;68.63
19259;BME280;9763;48.780;9.212;2024-02-15T14:01:16;98393.31;;;21.78;68.01
19259;BME280;9763;48.780;9.212;2024-02-15T14:04:40;98395.84;;;21.71;68.84
19259;BME280;9763;48.780;9.212;2024-02-15T14:08:05;98390.88;;;21.68;68.45
19259;BME280;9763;48.780;9.212;2024-02-15T14:11:30;98387.72;;;21.65;68.44
19259;BME280;9763;48.780;9.212;2024-02-15T14:14:55;98386.41;;;21.61;68.05
19259;BME280;9763;48.780;9.212;2024-02-15T14:18:19;98373.28;;;21.51;68.68
19259;BME280;9763;48.780;9.212;2024-02-15T14:21:43;98370.34;;;21.46;69.20
19259;BME280;9763;48.780;9.212;2024-02-15T14:25:07;98363.69;;;21.42;68.86
19259;BME280;9763;48.780;9.212;2024-02-15T14:28:31;98360.53;;;21.38;68.57
19259;BME280;9763;48.780;9.212;2024-02-15T14:31:56;98358.56;;;21.32;69.14
19259;BME280;9763;48.780;9.212;2024-02-15T14:35:52;98352.28;;;21.25;68.62
19259;BME280;9763;48.780;9.212;2024-02-15T14:39:17;98350.31;;;21.19;69.31
19259;BME280;9763;48.780;9.212;2024-02-15T14:42:42;98347.63;;;21.11;68.59
19259;BME280;9763;48.780;9.212;2024-02-15T14:46:18;98354.25;;;21.07;69.18
19259;BME280;9763;48.780;9.212;2024-02-15T14:49:43;98348.97;;;20.99;69.21
19259;BME280;9763;48.780;9.212;2024-02-15T14:53:06;98337.19;;;20.93;68.95
19259;BME280;9763;48.780;9.212;2024-02-15T14:56:30;98334.84;;;20.90;69.33
19259;BME280;9763;48.780;9.212;2024-02-15T15:00:00;98337.03;;;20.87;69.01
19259;BME280;9763;48.780;9.212;2024-02-15T15:03:31;98334.88;;;20.82;69.22
19259;BME280;9763;48.780;9.212;2024-02-15T15:06:57;98340.34;;;20.80;69.34
19259;BME280;9763;48.780;9.212;2024-02-15T15:10:38;98334.53;;;20.69;69.12
19259;BME280;9763;48.780;9.212;2024-02-15T15:14:19;98345.81;;;20.71;69.06
19259;BME280;9763;48.780;9.212;2024-02-15T15:17:42;98354.75;;;20.70;68.69
19259;BME280;9763;48.780;9.212;2024-02-15T15:21:06;98351.13;;;20.71;68.63
19259;BME280;9763;48.780;9.212;2024-02-15T15:24:31;98348.78;;;20.68;68.90
19259;BME280;9763;48.780;9.212;2024-02-15T15:27:56;98354.59;;;20.63;68.59
19259;BME280;9763;48.780;9.212;2024-02-15T15:31:19;98343.81;;;20.57;68.44
19259;BME280;9763;48.780;9.212;2024-02-15T15:34:43;98346.47;;;20.48;68.37
19259;BME280;9763;48.780;9.212;2024-02-15T15:38:06;98345.63;;;20.40;68.30
19259;BME280;9763;48.780;9.212;2024-02-15T15:41:31;98343.59;;;20.34;67.81
19259;BME280;9763;48.780;9.212;2024-02-15T15:44:55;98338.13;;;20.27;67.13
19259;BME280;9763;48.780;9.212;2024-02-15T15:48:18;98331.28;;;20.17;67.63
19259;BME280;9763;48.780;9.212;2024-02-15T15:51:42;98326.78;;;20.01;67.32
19259;BME280;9763;48.780;9.212;2024-02-15T15:55:07;98326.56;;;19.94;67.22
19259;BME280;9763;48.780;9.212;2024-02-15T15:58:34;98309.97;;;19.84;67.27
19259;BME280;9763;48.780;9.212;2024-02-15T16:01:57;98316.78;;;19.78;67.05
19259;BME280;9763;48.780;9.212;2024-02-15T16:05:22;98320.34;;;19.69;67.00
19259;BME280;9763;48.780;9.212;2024-02-15T16:08:46;98309.06;;;19.59;67.01
19259;BME280;9763;48.780;9.212;2024-02-15T16:12:09;98307.53;;;19.49;67.04
19259;BME280;9763;48.780;9.212;2024-02-15T16:15:34;98308.75;;;19.36;67.57
19259;BME280;9763;48.780;9.212;2024-02-15T16:19:00;98311.97;;;19.22;67.59
19259;BME280;9763;48.780;9.212;2024-02-15T16:22:24;98296.66;;;19.08;67.07
19259;BME280;9763;48.780;9.212;2024-02-15T16:25:47;98270.25;;;18.82;67.14
19259;BME280;9763;48.780;9.212;2024-02-15T16:29:12;98293.06;;;18.83;67.51
19259;BME280;9763;48.780;9.212;2024-02-15T16:32:38;98283.03;;;18.69;67.85
19259;BME280;9763;48.780;9.212;2024-02-15T16:36:02;98281.47;;;18.58;67.54
19259;BME280;9763;48.780;9.212;2024-02-15T16:39:25;98285.31;;;18.46;67.42
19259;BME280;9763;48.780;9.212;2024-02-15T16:42:49;98279.41;;;18.34;67.85
19259;BME280;9763;48.780;9.212;2024-02-15T16:46:16;98278.28;;;18.19;67.74
19259;BME280;9763;48.780;9.212;2024-02-15T16:49:41;98286.94;;;18.12;67.48
19259;BME280;9763;48.780;9.212;2024-02-15T16:53:04;98287.56;;;18.06;67.48
19259;BME280;9763;48.780;9.212;2024-02-15T16:56:29;98298.03;;;17.97;67.68
19259;BME280;9763;48.780;9.212;2024-02-15T16:59:53;98294.59;;;17.87;67.84
19259;BME280;9763;48.780;9.212;2024-02-15T17:03:16;98295.66;;;17.77;68.06
19259;BME280;9763;48.780;9.212;2024-02-15T17:06:42;98295.84;;;17.66;68.22
19259;BME280;9763;48.780;9.212;2024-02-15T17:10:07;98294.22;;;17.55;68.06
19259;BME280;9763;48.780;9.212;2024-02-15T17:13:31;98289.66;;;17.47;67.91
19259;BME280;9763;48.780;9.212;2024-02-15T17:16:55;98282.31;;;17.41;68.58
19259;BME280;9763;48.780;9.212;2024-02-15T17:20:19;98298.56;;;17.46;67.95
19259;BME280;9763;48.780;9.212;2024-02-15T17:23:46;98293.41;;;17.45;68.55
19259;BME280;9763;48.780;9.212;2024-02-15T17:27:10;98295.22;;;17.44;67.99
19259;BME280;9763;48.780;9.212;2024-02-15T17:30:34;98295.50;;;17.41;68.27
19259;BME280;9763;48.780;9.212;2024-02-15T17:33:58;98292.88;;;17.41;67.97
19259;BME280;9763;48.780;9.212;2024-02-15T17:37:24;98293.84;;;17.40;68.34
19259;BME280;9763;48.780;9.212;2024-02-15T17:40:48;98298.47;;;17.38;67.61
19259;BME280;9763;48.780;9.212;2024-02-15T17:44:12;98287.06;;;17.38;68.13
19259;BME280;9763;48.780;9.212;2024-02-15T17:47:36;98288.06;;;17.37;67.72
19259;BME280;9763;48.780;9.212;2024-02-15T17:51:00;98292.91;;;17.32;68.30
19259;BME280;9763;48.780;9.212;2024-02-15T17:54:26;98291.53;;;17.27;68.10
19259;BME280;9763;48.780;9.212;2024-02-15T17:57:51;98300.97;;;17.30;67.96
19259;BME280;9763;48.780;9.212;2024-02-15T18:01:14;98304.06;;;17.25;67.53
19259;BME280;9763;48.780;9.212;2024-02-15T18:04:38;98308.50;;;17.25;67.46
19259;BME280;9763;48.780;9.212;2024-02-15T18:08:02;98301.59;;;17.14;67.63
19259;BME280;9763;48.780;9.212;2024-02-15T18:11:26;98317.25;;;17.16;67.61
19259;BME280;9763;48.780;9.212;2024-02-15T18:14:52;98326.31;;;17.13;68.14
19259;BME280;9763;48.780;9.212;2024-02-15T18:18:16;98322.28;;;17.09;68.35
19259;BME280;9763;48.780;9.212;2024-02-15T18:21:40;98330.19;;;17.09;67.93
19259;BME280;9763;48.780;9.212;2024-02-15T18:25:04;98323.53;;;17.05;68.02